Time;durP1;ratioP1;P1;durP2;ratioP2;P2;SDS_P1;SDS_P2;PMS_P1;PMS_P2;Temp;Humidity;BMP_temperature;BMP_pressure;BME280_temperature;BME280_humidity;BME280_pressure;Samples;Min_cycle;Max_cycle;Signal;HPM_P1;HPM_P2
2021/05/13 00:02:25;;;;;;;2.93;0.90;;;;;;;11.73;65.67;99060.16;1721556;80;22255;-54
2021/05/13 00:04:52;;;;;;;2.00;0.80;;;;;;;11.70;65.80;99061.20;1725510;80;21584;-54
2021/05/13 00:07:19;;;;;;;2.80;0.70;;;;;;;11.68;65.82;99063.13;1729626;80;21478;-54
2021/05/13 00:09:47;;;;;;;1.53;0.70;;;;;;;11.66;65.87;99051.56;1726465;80;21218;-54
2021/05/13 00:12:27;;;;;;;1.97;0.70;;;;;;;11.66;65.96;99058.78;1724025;80;21846;-54
2021/05/13 00:14:43;;;;;;;1.10;0.70;;;;;;;11.67;66.08;99060.04;1723276;80;21432;-54
2021/05/13 00:17:09;;;;;;;5.00;1.10;;;;;;;11.67;66.15;99061.39;1724954;80;21189;-54
2021/05/13 00:19:35;;;;;;;0.98;0.60;;;;;;;11.69;66.21;99058.60;1727686;80;21107;-55
2021/05/13 00:22:02;;;;;;;1.65;0.70;;;;;;;11.68;66.37;99055.03;1724057;80;21297;-54
2021/05/13 00:24:29;;;;;;;1.00;0.60;;;;;;;11.68;66.31;99052.82;1724984;80;21147;-54
2021/05/13 00:26:59;;;;;;;2.33;0.72;;;;;;;11.67;66.41;99039.82;1725096;80;21092;-54
2021/05/13 00:29:27;;;;;;;2.08;0.60;;;;;;;11.66;66.46;99042.13;1724877;80;21552;-54
2021/05/13 00:31:53;;;;;;;1.20;0.60;;;;;;;11.64;66.55;99037.34;1718918;81;21163;-54
2021/05/13 00:34:19;;;;;;;2.63;0.70;;;;;;;11.61;66.61;99039.35;1712443;81;21120;-53
2021/05/13 00:36:45;;;;;;;1.47;0.70;;;;;;;11.59;66.65;99042.62;1711292;81;21712;-54
2021/05/13 00:39:12;;;;;;;1.90;0.60;;;;;;;11.57;66.73;99041.88;1665876;84;21137;-53
2021/05/13 00:41:38;;;;;;;2.40;0.60;;;;;;;11.55;66.82;99038.41;1672844;83;21502;-53
2021/05/13 00:44:06;;;;;;;0.70;0.50;;;;;;;11.54;66.95;99033.49;1673934;83;21153;-53
2021/05/13 00:46:33;;;;;;;1.55;0.50;;;;;;;11.55;66.96;99031.66;1675113;83;21163;-53
2021/05/13 00:49:06;;;;;;;1.37;0.60;;;;;;;11.56;66.97;99030.70;1673961;83;21143;-53
2021/05/13 00:51:30;;;;;;;1.67;0.60;;;;;;;11.57;66.99;99027.05;1659952;84;21538;-53
2021/05/13 00:53:57;;;;;;;4.35;0.98;;;;;;;11.54;66.97;99021.84;1661480;84;20988;-53
2021/05/13 00:56:25;;;;;;;1.30;0.70;;;;;;;11.55;66.97;99024.45;1714014;81;21169;-53
2021/05/13 00:58:53;;;;;;;1.42;0.60;;;;;;;11.54;66.94;99025.41;1693883;82;21160;-53
2021/05/13 01:01:21;;;;;;;1.22;0.70;;;;;;;11.51;66.94;99017.98;1711802;81;21123;-54
2021/05/13 01:03:47;;;;;;;0.72;0.55;;;;;;;11.46;67.00;99018.77;1715826;81;21829;-53
2021/05/13 01:06:15;;;;;;;1.10;0.70;;;;;;;11.42;67.05;99012.70;1713906;81;21123;-53
2021/05/13 01:08:41;;;;;;;2.37;0.70;;;;;;;11.37;67.14;99010.31;1715265;81;21088;-53
2021/05/13 01:11:10;;;;;;;2.80;0.60;;;;;;;11.33;67.26;99007.89;1714958;81;21136;-53
2021/05/13 01:13:55;;;;;;;1.23;0.40;;;;;;;11.28;67.36;99008.67;1709508;81;21667;-54
2021/05/13 01:16:35;;;;;;;;;;;;;;;11.24;67.52;99002.59;1717244;81;21730;-54
2021/05/13 01:18:52;;;;;;;1.27;0.50;;;;;;;11.21;67.65;99008.20;1711037;81;20582;-54
2021/05/13 01:21:18;;;;;;;0.70;0.50;;;;;;;11.18;67.71;99013.77;1715051;81;21054;-53
2021/05/13 01:23:46;;;;;;;0.70;0.40;;;;;;;11.16;67.88;99010.77;1720489;81;21144;-53
2021/05/13 01:26:14;;;;;;;0.67;0.50;;;;;;;11.14;67.97;99012.72;1711315;81;21028;-52
2021/05/13 01:28:42;;;;;;;0.73;0.60;;;;;;;11.12;68.08;99010.59;1713913;81;21586;-51
2021/05/13 01:31:08;;;;;;;3.37;0.60;;;;;;;11.10;68.18;99009.81;1718485;81;21168;-51
2021/05/13 01:33:34;;;;;;;1.07;0.50;;;;;;;11.10;68.21;99012.03;1729274;80;21087;-51
2021/05/13 01:36:01;;;;;;;2.40;0.53;;;;;;;11.10;68.24;99013.38;1726664;80;21149;-52
2021/05/13 01:38:27;;;;;;;1.10;0.60;;;;;;;11.09;68.25;99019.72;1729238;80;21107;-51
2021/05/13 01:40:58;;;;;;;1.20;0.57;;;;;;;11.07;68.29;99016.25;1669030;83;23140;-51
2021/05/13 01:43:25;;;;;;;2.07;0.70;;;;;;;11.06;68.38;99014.52;1724932;80;21192;-53
2021/05/13 01:45:51;;;;;;;1.73;0.60;;;;;;;11.04;68.45;99011.07;1728928;80;21006;-53
2021/05/13 01:48:18;;;;;;;0.63;0.50;;;;;;;10.99;68.55;99007.30;1727449;80;21300;-53
2021/05/13 01:50:46;;;;;;;1.00;0.40;;;;;;;10.97;68.64;99001.13;1729123;80;20984;-53
2021/05/13 01:53:13;;;;;;;0.63;0.50;;;;;;;10.96;68.71;98998.56;1729899;80;21061;-53
2021/05/13 01:55:40;;;;;;;2.20;0.47;;;;;;;10.94;68.78;99001.34;1729398;80;21012;-53
2021/05/13 01:58:07;;;;;;;0.80;0.50;;;;;;;10.92;68.88;99002.39;1728437;80;21991;-53
2021/05/13 02:00:36;;;;;;;1.80;0.60;;;;;;;10.91;68.96;99005.55;1727152;80;21609;-53
2021/05/13 02:03:04;;;;;;;3.33;0.50;;;;;;;10.89;69.03;99000.73;1723749;80;21784;-53
2021/05/13 02:05:30;;;;;;;3.07;0.50;;;;;;;10.88;69.05;99002.20;1728707;80;21573;-53
2021/05/13 02:07:56;;;;;;;3.40;0.50;;;;;;;10.86;69.11;99002.30;1729500;80;21306;-53
2021/05/13 02:10:23;;;;;;;1.43;0.50;;;;;;;10.84;69.18;99008.72;1727056;80;20987;-53
2021/05/13 02:12:50;;;;;;;1.10;0.60;;;;;;;10.80;69.23;99003.16;1727669;80;21625;-53
2021/05/13 02:15:18;;;;;;;2.13;0.50;;;;;;;10.76;69.35;99002.47;1734080;80;20960;-53
2021/05/13 02:17:45;;;;;;;1.07;0.50;;;;;;;10.74;69.44;99003.50;1733884;80;21498;-53
2021/05/13 02:20:14;;;;;;;0.93;0.40;;;;;;;10.71;69.53;99000.55;1731645;80;21220;-53
2021/05/13 02:22:40;;;;;;;0.50;0.40;;;;;;;10.71;69.60;98997.85;1728639;80;21411;-53
2021/05/13 02:25:09;;;;;;;0.60;0.40;;;;;;;10.72;69.65;99001.41;1725470;80;21155;-53
2021/05/13 02:27:36;;;;;;;1.20;0.50;;;;;;;10.74;69.71;99003.03;1726901;80;21072;-53
2021/05/13 02:30:06;;;;;;;1.10;0.50;;;;;;;10.75;69.75;98999.38;1726778;80;21587;-55
2021/05/13 02:32:32;;;;;;;0.73;0.50;;;;;;;10.76;69.77;98993.52;1723449;80;20933;-53
2021/05/13 02:34:58;;;;;;;1.00;0.50;;;;;;;10.77;69.80;98999.30;1723032;80;20969;-54
2021/05/13 02:37:24;;;;;;;1.50;0.60;;;;;;;10.76;69.86;98997.08;1720831;80;21596;-54
2021/05/13 02:39:51;;;;;;;0.70;0.50;;;;;;;10.76;69.83;98988.14;1720074;80;21103;-54
2021/05/13 02:42:17;;;;;;;0.83;0.50;;;;;;;10.75;69.84;98998.52;1719984;80;21178;-54
2021/05/13 02:44:44;;;;;;;1.27;0.50;;;;;;;10.74;69.87;98998.12;1721359;80;20960;-54
2021/05/13 02:47:10;;;;;;;1.40;0.50;;;;;;;10.72;69.90;98999.55;1687543;82;21130;-53
2021/05/13 02:49:37;;;;;;;0.60;0.50;;;;;;;10.71;69.91;99000.55;1672321;83;21575;-54
2021/05/13 02:52:04;;;;;;;1.70;0.40;;;;;;;10.72;69.94;98998.20;1669605;83;21115;-53
2021/05/13 02:54:31;;;;;;;0.97;0.43;;;;;;;10.73;69.94;99004.46;1673145;83;21170;-53
2021/05/13 02:56:57;;;;;;;0.70;0.50;;;;;;;10.74;69.99;99001.69;1699602;81;21124;-54
2021/05/13 02:59:42;;;;;;;3.62;0.50;;;;;;;10.76;70.05;99011.02;1716366;81;21101;-54
2021/05/13 03:01:59;;;;;;;0.60;0.50;;;;;;;10.76;70.14;99007.84;1708910;81;21183;-53
2021/05/13 03:04:26;;;;;;;0.40;0.40;;;;;;;10.79;70.19;99006.33;1685957;82;21194;-54
2021/05/13 03:06:52;;;;;;;0.80;0.40;;;;;;;10.81;70.21;99005.73;1710880;81;22459;-54
2021/05/13 03:09:19;;;;;;;0.70;0.60;;;;;;;10.86;70.21;99006.34;1708483;81;21108;-53
2021/05/13 03:11:46;;;;;;;1.57;0.50;;;;;;;10.88;70.29;99009.80;1709134;81;21171;-53
2021/05/13 03:14:12;;;;;;;0.80;0.43;;;;;;;10.91;70.34;99010.08;1714443;81;21136;-54
2021/05/13 03:16:39;;;;;;;1.00;0.50;;;;;;;10.93;70.30;99010.37;1711954;81;21131;-54
2021/05/13 03:19:10;;;;;;;7.10;0.40;;;;;;;10.98;70.31;99012.77;1722262;80;22221;-54
2021/05/13 03:21:37;;;;;;;1.07;0.43;;;;;;;11.04;70.24;99008.38;1723240;80;21040;-54
2021/05/13 03:26:43;;;;;;;0.40;0.40;;;;;;;11.20;70.09;99005.11;1720955;80;21123;-54
2021/05/13 03:29:03;;;;;;;1.27;0.50;;;;;;;11.28;70.02;99014.92;1719166;80;21437;-54
2021/05/13 03:31:30;;;;;;;0.80;0.57;;;;;;;11.37;69.93;99014.34;1719638;82;21110;-54
2021/05/13 03:33:56;;;;;;;1.07;0.60;;;;;;;11.44;69.65;99020.21;1728712;80;20953;-54
2021/05/13 03:36:23;;;;;;;0.67;0.40;;;;;;;11.51;69.42;99014.81;1724260;80;20913;-53
2021/05/13 03:38:49;;;;;;;3.17;0.50;;;;;;;11.56;69.21;99013.19;1723995;80;21718;-54
2021/05/13 03:41:16;;;;;;;1.67;0.60;;;;;;;11.58;69.04;99013.93;1727478;80;22566;-52
2021/05/13 03:43:42;;;;;;;0.60;0.50;;;;;;;11.58;68.96;99016.63;1724528;80;21599;-53
2021/05/13 03:46:09;;;;;;;2.43;0.50;;;;;;;11.60;68.91;99026.36;1724235;80;21043;-52
2021/05/13 03:48:35;;;;;;;2.20;0.50;;;;;;;11.62;68.79;99024.44;1727634;80;21195;-53
2021/05/13 03:51:01;;;;;;;2.93;0.40;;;;;;;11.66;68.75;99027.78;1722306;80;21155;-53
2021/05/13 03:53:27;;;;;;;0.68;0.60;;;;;;;11.69;68.65;99022.20;1729145;80;21190;-53
2021/05/13 03:55:54;;;;;;;0.60;0.50;;;;;;;11.74;68.53;99021.41;1723488;80;22657;-53
2021/05/13 03:58:23;;;;;;;0.88;0.62;;;;;;;11.77;68.35;99014.52;1723385;80;21748;-53
2021/05/13 04:03:18;;;;;;;3.98;0.60;;;;;;;11.87;68.25;99014.31;1728468;80;21059;-53
2021/05/13 04:05:45;;;;;;;0.88;0.70;;;;;;;11.90;68.03;99016.82;1726436;80;21119;-53
2021/05/13 04:08:12;;;;;;;1.15;0.70;;;;;;;11.95;67.82;99011.11;1727401;80;21486;-53
2021/05/13 04:10:40;;;;;;;1.10;0.68;;;;;;;11.99;67.49;99008.09;1725913;80;21105;-53
2021/05/13 04:13:09;;;;;;;1.17;0.70;;;;;;;12.03;67.38;99011.47;1721387;80;21068;-53
2021/05/13 04:15:35;;;;;;;1.20;0.75;;;;;;;12.07;67.32;99013.02;1726319;80;21087;-53
2021/05/13 04:18:01;;;;;;;0.72;0.55;;;;;;;12.12;67.08;99009.04;1724423;80;21139;-53
2021/05/13 04:20:28;;;;;;;8.20;0.68;;;;;;;12.22;66.90;99004.38;1726124;80;22074;-53
2021/05/13 04:22:54;;;;;;;2.05;0.70;;;;;;;12.33;66.64;99013.50;1724922;80;21103;-53
2021/05/13 04:25:21;;;;;;;5.78;0.53;;;;;;;12.46;66.58;99012.17;1724155;80;21424;-53
2021/05/13 04:27:48;;;;;;;1.42;0.60;;;;;;;12.68;66.41;99006.17;1724855;80;21174;-53
2021/05/13 04:30:15;;;;;;;1.82;0.70;;;;;;;12.85;65.81;99009.44;1733379;80;20972;-53
2021/05/13 04:32:41;;;;;;;3.52;0.60;;;;;;;12.98;65.46;99005.91;1721377;80;21463;-53
2021/05/13 04:35:09;;;;;;;1.55;0.70;;;;;;;13.07;64.64;99010.18;1716205;81;21759;-53
2021/05/13 04:37:35;;;;;;;1.10;0.75;;;;;;;13.13;63.70;99006.17;1717295;81;20937;-53
2021/05/13 04:40:03;;;;;;;4.22;0.70;;;;;;;13.16;63.02;99006.00;1715402;81;20976;-53
2021/05/13 04:42:29;;;;;;;0.88;0.70;;;;;;;13.17;62.67;99009.08;1710724;81;20922;-53
2021/05/13 04:44:56;;;;;;;1.75;0.70;;;;;;;13.17;62.40;99010.44;1716416;81;21959;-53
2021/05/13 04:47:27;;;;;;;1.15;0.85;;;;;;;13.18;62.51;99009.47;1716149;81;21392;-53
2021/05/13 04:49:54;;;;;;;3.27;0.80;;;;;;;13.16;62.25;99003.30;1714375;81;21431;-53
2021/05/13 04:52:23;;;;;;;1.00;0.72;;;;;;;13.14;62.28;99005.23;1713911;81;21037;-53
2021/05/13 04:54:53;;;;;;;1.20;1.10;;;;;;;13.12;62.46;98998.55;1716268;81;20922;-53
2021/05/13 04:57:20;;;;;;;5.60;0.85;;;;;;;13.11;62.22;98999.52;1713235;81;21022;-52
2021/05/13 04:59:46;;;;;;;0.95;0.70;;;;;;;13.11;62.17;99002.70;1710955;81;21143;-53
2021/05/13 05:02:12;;;;;;;1.25;0.70;;;;;;;13.08;61.28;99000.23;1715738;81;20961;-53
2021/05/13 05:04:39;;;;;;;1.00;0.85;;;;;;;13.06;60.48;99001.69;1714949;81;20950;-53
2021/05/13 05:07:05;;;;;;;1.92;0.70;;;;;;;13.05;60.05;99003.14;1714517;81;21794;-53
2021/05/13 05:09:31;;;;;;;0.70;0.70;;;;;;;13.04;59.51;99000.06;1722862;81;21447;-53
2021/05/13 05:11:58;;;;;;;0.90;0.70;;;;;;;13.02;59.24;99000.64;1715675;81;20953;-53
2021/05/13 05:14:25;;;;;;;0.80;0.70;;;;;;;12.99;58.96;98998.18;1710321;81;21111;-53
2021/05/13 05:16:52;;;;;;;2.47;0.75;;;;;;;12.98;59.06;98997.31;1716807;81;21001;-53
2021/05/13 05:19:18;;;;;;;2.40;0.90;;;;;;;13.00;59.06;98998.56;1715322;81;21043;-53
2021/05/13 05:21:44;;;;;;;3.92;0.70;;;;;;;13.01;59.06;98996.24;1716272;81;21092;-53
2021/05/13 05:24:11;;;;;;;1.20;0.78;;;;;;;13.02;59.32;98993.89;1723073;81;21084;-53
2021/05/13 05:26:38;;;;;;;1.85;0.80;;;;;;;13.06;59.32;98995.42;1711535;81;21108;-53
2021/05/13 05:29:04;;;;;;;3.12;0.55;;;;;;;13.09;59.03;98999.27;1713321;81;21608;-53
2021/05/13 05:31:31;;;;;;;1.32;0.70;;;;;;;13.13;58.93;98998.06;1714305;81;21147;-53
2021/05/13 05:33:57;;;;;;;1.45;0.60;;;;;;;13.17;59.03;98991.52;1723788;80;21723;-53
2021/05/13 05:36:26;;;;;;;2.25;0.68;;;;;;;13.19;58.85;98994.47;1722749;80;21981;-52
2021/05/13 05:38:52;;;;;;;1.20;0.60;;;;;;;13.24;58.96;98992.33;1730622;80;21127;-53
2021/05/13 05:41:18;;;;;;;0.80;0.60;;;;;;;13.31;58.21;98997.28;1724281;80;21103;-53
2021/05/13 05:43:45;;;;;;;6.97;0.62;;;;;;;13.34;57.98;98993.89;1728135;80;21076;-53
2021/05/13 05:46:11;;;;;;;0.72;0.65;;;;;;;13.38;57.94;98995.37;1672912;83;21146;-53
2021/05/13 05:48:37;;;;;;;6.78;0.50;;;;;;;13.39;57.21;98995.77;1725369;80;21091;-53
2021/05/13 05:51:04;;;;;;;3.72;0.60;;;;;;;13.43;57.51;99001.83;1723169;80;21546;-53
2021/05/13 05:53:31;;;;;;;0.90;0.60;;;;;;;13.51;57.48;98998.09;1728300;80;20992;-53
2021/05/13 05:55:58;;;;;;;6.62;0.60;;;;;;;13.59;57.45;98999.27;1726825;80;21644;-52
2021/05/13 05:58:24;;;;;;;5.67;0.53;;;;;;;13.69;56.68;99009.41;1730946;80;21672;-53
2021/05/13 06:00:50;;;;;;;0.72;0.50;;;;;;;13.77;57.02;98998.90;1729241;80;21119;-53
2021/05/13 06:03:17;;;;;;;0.68;0.68;;;;;;;13.85;56.35;98989.25;1723708;80;21151;-55
2021/05/13 06:05:43;;;;;;;0.72;0.50;;;;;;;13.93;56.15;98991.38;1728426;80;21657;-54
2021/05/13 06:08:11;;;;;;;1.02;0.50;;;;;;;14.03;55.65;98995.14;1729170;80;21052;-55
2021/05/13 06:10:37;;;;;;;0.55;0.40;;;;;;;14.11;55.42;98997.27;1723676;80;21330;-52
2021/05/13 06:13:07;;;;;;;1.57;0.53;;;;;;;14.18;55.48;99003.47;1724931;80;21138;-51
2021/05/13 06:15:32;;;;;;;0.70;0.40;;;;;;;14.26;55.05;99001.53;1725829;80;21403;-52
2021/05/13 06:17:59;;;;;;;0.55;0.35;;;;;;;14.32;54.79;98999.22;1728205;80;21216;-52
2021/05/13 06:20:30;;;;;;;0.20;0.20;;;;;;;14.40;53.81;99000.02;1731683;80;21118;-52
2021/05/13 06:22:56;;;;;;;1.80;0.40;;;;;;;14.45;53.17;98996.50;1727884;80;21076;-51
2021/05/13 06:25:24;;;;;;;0.35;0.20;;;;;;;14.52;52.87;98996.89;1730594;80;21016;-52
2021/05/13 06:27:50;;;;;;;1.47;0.20;;;;;;;14.56;52.30;98989.75;1726951;80;20971;-52
2021/05/13 06:30:18;;;;;;;0.82;0.30;;;;;;;14.64;51.73;98985.09;1726320;80;21565;-52
2021/05/13 06:32:44;;;;;;;0.70;0.23;;;;;;;14.71;52.51;98994.50;1727674;80;21051;-51
2021/05/13 06:35:11;;;;;;;0.30;0.30;;;;;;;14.80;52.17;98998.35;1712828;81;21155;-51
2021/05/13 06:37:37;;;;;;;1.02;0.20;;;;;;;14.88;51.30;98995.91;1714713;81;22226;-52
2021/05/13 06:40:05;;;;;;;1.22;0.28;;;;;;;14.96;51.25;98992.11;1712677;81;21199;-53
2021/05/13 06:42:31;;;;;;;1.20;0.20;;;;;;;15.06;50.84;99002.09;1715038;81;21083;-52
2021/05/13 06:44:58;;;;;;;0.85;0.40;;;;;;;15.13;50.22;98991.16;1709795;81;21148;-54
2021/05/13 06:47:24;;;;;;;1.75;0.30;;;;;;;15.22;50.80;99002.27;1709418;81;21143;-53
2021/05/13 06:49:51;;;;;;;1.07;0.30;;;;;;;15.31;50.68;98992.88;1709006;81;21099;-53
2021/05/13 06:52:17;;;;;;;1.07;0.30;;;;;;;15.39;50.97;98987.73;1711495;81;21513;-53
2021/05/13 06:54:44;;;;;;;0.93;0.37;;;;;;;15.48;50.75;98992.39;1714263;81;21163;-53
2021/05/13 06:57:11;;;;;;;0.45;0.33;;;;;;;15.59;50.69;98989.35;1678654;83;21135;-53
2021/05/13 06:59:39;;;;;;;0.40;0.40;;;;;;;15.66;50.75;98987.37;1715783;81;21200;-53
2021/05/13 07:02:05;;;;;;;0.72;0.30;;;;;;;15.77;50.86;98976.52;1714457;81;21153;-53
2021/05/13 07:04:31;;;;;;;0.55;0.20;;;;;;;15.92;50.38;98977.59;1712491;81;21092;-54
2021/05/13 07:06:58;;;;;;;0.50;0.30;;;;;;;15.99;48.98;98971.53;1682614;83;21099;-53
2021/05/13 07:09:26;;;;;;;0.50;0.50;;;;;;;16.04;49.08;98969.81;1711138;81;21100;-52
2021/05/13 07:11:52;;;;;;;0.40;0.20;;;;;;;16.09;49.12;98968.43;1709147;81;22433;-53
2021/05/13 07:14:20;;;;;;;0.33;0.10;;;;;;;16.13;48.88;98969.05;1708706;81;22373;-53
2021/05/13 07:16:48;;;;;;;0.55;0.20;;;;;;;16.14;48.04;98961.28;1713262;81;21012;-53
2021/05/13 07:19:15;;;;;;;0.30;0.20;;;;;;;16.13;47.59;98971.27;1712519;81;21111;-53
2021/05/13 07:21:41;;;;;;;0.37;0.10;;;;;;;16.12;47.22;98974.11;1711864;81;21375;-53
2021/05/13 07:24:09;;;;;;;0.20;0.05;;;;;;;16.12;47.03;98978.18;1714288;81;22253;-53
2021/05/13 07:26:35;;;;;;;1.72;0.13;;;;;;;16.08;46.87;98968.06;1707594;81;21167;-53
2021/05/13 07:29:02;;;;;;;1.90;0.13;;;;;;;16.04;46.76;98975.23;1714199;81;20960;-53
2021/05/13 07:31:28;;;;;;;3.25;0.30;;;;;;;15.98;47.20;98972.55;1716640;81;20973;-53
2021/05/13 07:33:55;;;;;;;0.40;0.20;;;;;;;15.97;47.22;98977.61;1718503;80;22186;-53
2021/05/13 07:36:21;;;;;;;2.83;0.25;;;;;;;15.97;46.69;98978.09;1730094;80;21501;-52
2021/05/13 07:38:48;;;;;;;0.23;0.10;;;;;;;15.93;46.81;98977.48;1729377;80;21459;-53
2021/05/13 07:41:15;;;;;;;3.70;0.20;;;;;;;15.93;46.99;98975.25;1723405;80;20988;-53
2021/05/13 07:43:43;;;;;;;0.37;0.15;;;;;;;15.97;46.54;98974.89;1728863;80;20925;-53
2021/05/13 07:46:09;;;;;;;0.30;0.20;;;;;;;15.97;46.54;98974.89;1729387;80;20936;-53
2021/05/13 07:48:36;;;;;;;3.60;0.30;;;;;;;15.97;46.76;98975.38;1728897;80;21915;-53
2021/05/13 07:51:03;;;;;;;11.97;0.60;;;;;;;15.96;46.09;98978.59;1727504;80;21502;-53
2021/05/13 07:53:29;;;;;;;1.98;0.30;;;;;;;15.96;46.09;98978.59;1726964;80;20913;-52
2021/05/13 07:55:56;;;;;;;16.37;0.35;;;;;;;15.95;46.45;98977.36;1728331;80;20996;-52
2021/05/13 07:58:22;;;;;;;2.72;0.30;;;;;;;15.97;46.56;98979.45;1731764;80;21486;-53
2021/05/13 08:00:49;;;;;;;0.50;0.30;;;;;;;15.99;46.75;98982.91;1729184;80;21637;-53
2021/05/13 08:03:16;;;;;;;0.78;0.33;;;;;;;16.02;47.07;98976.72;1726627;80;20992;-54
2021/05/13 08:05:42;;;;;;;3.50;0.40;;;;;;;16.03;46.57;98979.80;1726768;80;20945;-53
2021/05/13 08:08:08;;;;;;;0.90;0.20;;;;;;;16.02;46.55;98974.00;1727450;80;21209;-54
2021/05/13 08:10:34;;;;;;;2.70;0.30;;;;;;;15.99;46.16;98967.46;1729389;80;21096;-53
2021/05/13 08:13:01;;;;;;;1.42;0.30;;;;;;;16.00;46.29;98969.69;1724562;80;21693;-53
2021/05/13 08:15:27;;;;;;;1.92;0.30;;;;;;;16.06;45.65;98971.91;1724187;80;21517;-53
2021/05/13 08:17:54;;;;;;;1.30;0.40;;;;;;;16.06;45.65;98971.91;1725758;80;22041;-54
2021/05/13 08:20:20;;;;;;;0.53;0.20;;;;;;;16.06;45.37;98964.63;1725943;80;21123;-54
2021/05/13 08:22:47;;;;;;;19.95;0.80;;;;;;;16.07;45.09;98966.85;1729264;80;21076;-54
2021/05/13 08:25:18;;;;;;;2.33;0.20;;;;;;;16.09;45.28;98961.64;1728918;80;21537;-54
2021/05/13 08:27:42;;;;;;;3.87;0.20;;;;;;;16.13;45.30;98958.19;1728670;80;21717;-54
2021/05/13 08:30:10;;;;;;;0.40;0.30;;;;;;;16.22;44.37;98956.06;1724324;80;21107;-53
2021/05/13 08:32:36;;;;;;;0.70;0.40;;;;;;;16.23;44.52;98957.30;1727852;80;20940;-53
2021/05/13 08:35:03;;;;;;;4.10;0.30;;;;;;;16.26;44.66;98961.59;1721090;80;21240;-54
2021/05/13 08:37:29;;;;;;;0.60;0.30;;;;;;;16.26;44.66;98961.59;1713002;81;21123;-53
2021/05/13 08:39:56;;;;;;;1.07;0.20;;;;;;;16.34;45.28;98967.73;1714356;81;21135;-54
2021/05/13 08:42:22;;;;;;;0.72;0.40;;;;;;;16.34;45.28;98967.73;1716424;81;21108;-54
2021/05/13 08:44:48;;;;;;;1.98;0.40;;;;;;;16.45;45.57;98956.83;1717785;81;21600;-54
2021/05/13 08:47:14;;;;;;;0.40;0.20;;;;;;;16.45;45.57;98956.83;1713165;81;21052;-54
2021/05/13 08:49:42;;;;;;;1.15;0.30;;;;;;;16.56;45.16;98960.87;1713293;81;21121;-53
2021/05/13 08:52:13;;;;;;;1.05;0.37;;;;;;;16.56;45.16;98960.87;1713517;81;21048;-53
2021/05/13 08:55:00;;;;;;;0.40;0.30;;;;;;;16.59;45.09;98956.02;1711850;81;21108;-54
2021/05/13 08:57:27;;;;;;;0.53;0.30;;;;;;;16.59;45.01;98949.22;1710461;81;21139;-54
2021/05/13 08:59:54;;;;;;;0.72;0.40;;;;;;;16.63;45.31;98953.95;1710466;81;21645;-54
2021/05/13 09:02:21;;;;;;;0.50;0.30;;;;;;;16.67;44.83;98959.50;1717790;81;22100;-54
2021/05/13 09:04:49;;;;;;;0.93;0.30;;;;;;;16.69;44.52;98953.41;1661665;84;20948;-53
2021/05/13 09:07:28;;;;;;;0.30;0.20;;;;;;;16.72;44.77;98959.09;1672732;83;21166;-54
2021/05/13 09:10:10;;;;;;;0.50;0.20;;;;;;;16.72;44.77;98959.09;1645936;84;21056;-54
2021/05/13 09:12:49;;;;;;;0.20;0.20;;;;;;;16.72;43.95;98954.52;1713315;81;21507;-54
2021/05/13 09:15:20;;;;;;;0.72;0.40;;;;;;;16.76;43.89;98954.60;1711321;81;22547;-54
2021/05/13 09:17:51;;;;;;;2.35;0.37;;;;;;;16.81;44.51;98963.73;1716542;81;21080;-54
2021/05/13 09:20:36;;;;;;;7.03;0.50;;;;;;;16.88;44.42;98959.48;1721081;81;20941;-53
2021/05/13 09:23:28;;;;;;;2.87;0.30;;;;;;;16.93;43.90;98959.44;1716256;81;21522;-55
2021/05/13 09:26:11;;;;;;;0.40;0.30;;;;;;;16.94;43.17;98954.87;1711231;81;21005;-54
2021/05/13 09:28:38;;;;;;;1.00;0.70;;;;;;;16.92;43.53;98959.60;1714838;81;21113;-53
2021/05/13 09:31:06;;;;;;;2.67;0.50;;;;;;;16.91;43.08;98956.02;1715229;81;20989;-54
2021/05/13 09:33:36;;;;;;;0.80;0.40;;;;;;;16.95;43.06;98949.80;1715339;81;20965;-53
2021/05/13 09:36:17;;;;;;;1.92;0.50;;;;;;;16.99;43.41;98952.13;1720916;80;21167;-54
2021/05/13 09:38:44;;;;;;;4.72;0.65;;;;;;;17.03;42.88;98946.78;1719775;80;21431;-54
2021/05/13 09:41:10;;;;;;;0.20;0.20;;;;;;;17.02;42.52;98945.55;1717540;80;21589;-54
2021/05/13 09:43:38;;;;;;;1.20;0.47;;;;;;;17.04;42.54;98950.36;1716130;80;21109;-54
2021/05/13 09:46:05;;;;;;;12.95;5.45;;;;;;;17.06;42.88;98945.66;1718789;80;21646;-53
2021/05/13 09:48:47;;;;;;;3.47;0.85;;;;;;;17.12;43.47;98948.33;1725480;80;21558;-54
2021/05/13 09:51:29;;;;;;;0.90;0.50;;;;;;;17.17;43.60;98941.51;1720109;80;21060;-54
2021/05/13 09:54:16;;;;;;;4.25;1.90;;;;;;;17.26;43.63;98936.63;1721374;80;21108;-54
2021/05/13 09:56:51;;;;;;;5.00;0.50;;;;;;;17.34;43.73;98935.94;1723755;80;20934;-54
2021/05/13 09:59:30;;;;;;;1.80;0.90;;;;;;;17.43;43.38;98935.62;1725734;80;21619;-55
2021/05/13 10:01:58;;;;;;;0.93;0.50;;;;;;;17.49;43.33;98945.45;1724539;80;21067;-55
2021/05/13 10:04:25;;;;;;;7.80;2.10;;;;;;;17.54;42.86;98932.77;1730611;80;21079;-54
2021/05/13 10:06:53;;;;;;;5.00;0.90;;;;;;;17.54;41.97;98940.94;1727623;80;21384;-55
2021/05/13 10:09:20;;;;;;;1.02;0.50;;;;;;;17.53;42.35;98933.77;1727665;80;21083;-55
2021/05/13 10:11:53;;;;;;;2.22;0.60;;;;;;;17.57;42.18;98929.79;1727618;80;21501;-55
2021/05/13 10:14:21;;;;;;;1.37;0.70;;;;;;;17.60;42.22;98934.47;1730255;80;20973;-55
2021/05/13 10:16:49;;;;;;;4.97;0.40;;;;;;;17.63;42.08;98928.77;1729432;80;20973;-54
2021/05/13 10:19:22;;;;;;;0.30;0.30;;;;;;;17.67;41.00;98929.36;1728124;80;20956;-55
2021/05/13 10:21:48;;;;;;;3.25;0.50;;;;;;;17.68;40.80;98921.56;1728954;80;20909;-55
2021/05/13 10:24:15;;;;;;;0.88;0.40;;;;;;;17.72;41.22;98914.83;1698238;81;21118;-55
2021/05/13 10:26:46;;;;;;;1.12;0.30;;;;;;;17.75;40.84;98915.42;1718965;81;21117;-54
2021/05/13 10:29:27;;;;;;;0.40;0.30;;;;;;;17.80;41.07;98919.57;1717190;81;21125;-55
2021/05/13 10:32:14;;;;;;;1.05;0.40;;;;;;;17.80;39.93;98897.30;1709419;81;21194;-55
2021/05/13 10:34:46;;;;;;;6.10;1.95;;;;;;;17.79;40.18;98903.73;1710866;81;22296;-55
2021/05/13 10:37:18;;;;;;;19.62;1.62;;;;;;;17.82;40.60;98910.77;1723587;80;21106;-54
2021/05/13 10:40:19;;;;;;;0.78;0.40;;;;;;;17.84;40.38;98906.92;1726320;80;21596;-55
2021/05/13 10:42:44;;;;;;;1.95;0.80;;;;;;;17.86;39.53;98899.48;1729903;80;20980;-55
2021/05/13 10:48:40;;;;;;;11.20;3.13;;;;;;;17.92;39.65;98897.55;1791469;78;27571;-52
2021/05/13 10:51:08;;;;;;;2.20;0.72;;;;;;;17.88;39.42;98912.92;1763411;79;21080;-53
2021/05/13 10:53:48;;;;;;;2.27;0.50;;;;;;;17.84;39.42;98901.97;1733289;81;21089;-53
2021/05/13 10:56:23;;;;;;;1.12;0.45;;;;;;;17.81;39.80;98896.80;1715862;82;20988;-53
2021/05/13 10:59:09;;;;;;;0.40;0.40;;;;;;;17.81;39.86;98906.33;1713197;82;20944;-53
2021/05/13 11:01:43;;;;;;;3.08;0.40;;;;;;;17.82;39.76;98898.52;1717329;82;21541;-53
2021/05/13 11:04:29;;;;;;;4.85;0.50;;;;;;;17.87;39.84;98906.62;1716192;82;20964;-53
2021/05/13 11:06:59;;;;;;;1.57;0.70;;;;;;;17.91;39.81;98905.35;1715974;82;21466;-53
2021/05/13 11:09:46;;;;;;;19.35;0.75;;;;;;;18.05;40.04;98904.07;1717094;82;20901;-53
2021/05/13 11:12:19;;;;;;;1.22;0.30;;;;;;;18.12;39.95;98912.89;1713930;82;21050;-55
2021/05/13 11:15:09;;;;;;;1.60;0.40;;;;;;;18.20;39.61;98912.70;1712637;82;21051;-55
2021/05/13 11:17:53;;;;;;;0.40;0.33;;;;;;;18.23;39.75;98909.68;1734083;81;21159;-55
2021/05/13 11:20:36;;;;;;;3.75;0.85;;;;;;;18.27;39.21;98911.13;1715661;81;21542;-55
2021/05/13 11:23:05;;;;;;;9.03;0.90;;;;;;;18.25;39.34;98918.08;1707820;83;21501;-55
2021/05/13 11:25:58;;;;;;;1.92;0.50;;;;;;;18.21;39.26;98911.67;1711256;83;20955;-55
2021/05/13 11:28:38;;;;;;;6.60;0.40;;;;;;;18.17;39.53;98906.17;1710049;83;21059;-55
2021/05/13 11:31:19;;;;;;;2.22;0.50;;;;;;;18.12;39.93;98909.30;1706155;83;21150;-56
2021/05/13 11:33:57;;;;;;;2.17;0.57;;;;;;;18.08;39.47;98910.11;1709027;83;21170;-55
2021/05/13 11:36:38;;;;;;;4.78;1.00;;;;;;;18.02;39.88;98912.55;1710577;83;20933;-55
2021/05/13 11:39:12;;;;;;;1.10;0.40;;;;;;;18.02;40.09;98915.27;1711098;82;21027;-55
2021/05/13 11:41:40;;;;;;;0.93;0.20;;;;;;;18.00;40.58;98908.59;1714882;82;21131;-55
2021/05/13 11:44:07;;;;;;;2.05;0.37;;;;;;;18.02;40.08;98921.58;1708844;83;21352;-55
2021/05/13 11:46:36;;;;;;;1.82;0.30;;;;;;;18.02;39.49;98916.63;1711196;81;21137;-55
2021/05/13 11:49:01;;;;;;;4.72;0.30;;;;;;;17.97;39.21;98902.55;1761317;80;21123;-56
2021/05/13 11:51:29;;;;;;;1.77;0.40;;;;;;;17.94;39.94;98906.45;1762597;80;21065;-55